Terminal Aerodrome Forecast
Issued by NWS Binghamton, NY

Home | Current Version | Previous Version | Text Only | Print | Product List | Glossary On
Versions: 1 2 3 4 5 6 7 8 9 10 11 12 13 14 15 16 17 18 19
000
FTUS41 KBGM 241724
TAFSYR
TAF
KSYR 241724Z 2418/2518 34005KT P6SM BKN080
      TEMPO 2418/2421 OVC025
     FM250300 12010KT P6SM OVC060
     FM250800 15018G30KT 3SM RA BR OVC015 WS020/20060KT
     FM251600 18012G22KT P6SM -SHRA OVC025=

USA.gov is the U.S. government's official web portal to all federal, state and local government web resources and services.